createdAt,value
2018-05-16T00:01:26.969Z,7.27
2018-05-16T00:10:08.414Z,8.10
2018-05-16T00:12:39.755Z,7.83
2018-05-16T00:18:41.639Z,8.43
2018-05-16T00:21:11.848Z,7.87
2018-05-16T00:23:42.032Z,7.50
2018-05-16T00:26:12.246Z,7.70
2018-05-16T00:28:43.148Z,7.67
2018-05-16T00:31:13.321Z,7.13
2018-05-16T00:33:43.449Z,7.63
2018-05-16T00:36:13.636Z,7.20
2018-05-16T00:38:43.831Z,7.40
2018-05-16T00:44:24.084Z,7.03
2018-05-16T00:46:54.299Z,8.40
2018-05-16T00:49:24.464Z,7.93
2018-05-16T00:55:04.731Z,7.60
2018-05-16T00:57:52.727Z,7.23
2018-05-16T01:03:30.371Z,7.43
2018-05-16T01:18:43.533Z,8.80
2018-05-16T01:40:29.073Z,8.03
2018-05-16T01:43:15.806Z,7.40
2018-05-16T01:46:02.467Z,9.47
2018-05-16T01:48:32.598Z,10.10
2018-05-16T01:54:14.787Z,8.47
2018-05-16T01:57:03.353Z,8.43
2018-05-16T01:59:33.433Z,10.17
2018-05-16T02:02:03.638Z,9.10
2018-05-16T02:04:34.021Z,9.07
2018-05-16T02:29:05.360Z,8.50
2018-05-16T02:31:35.529Z,8.73
2018-05-16T02:34:05.908Z,7.63
2018-05-16T02:36:36.065Z,8.30
2018-05-16T02:39:06.374Z,10.07
2018-05-16T02:41:36.664Z,10.57
2018-05-16T02:44:07.467Z,10.63
2018-05-16T02:46:37.740Z,11.00
2018-05-16T02:49:08.047Z,10.87
2018-05-16T02:51:38.235Z,12.43
2018-05-16T02:54:08.424Z,13.87
2018-05-16T02:56:38.716Z,11.67
2018-05-16T02:59:09.100Z,12.93
2018-05-16T03:01:40.081Z,12.67
2018-05-16T03:04:11.048Z,13.87
2018-05-16T03:06:41.689Z,14.87
2018-05-16T03:09:12.409Z,14.10
2018-05-16T03:11:42.569Z,14.70
2018-05-16T03:14:13.015Z,15.23
2018-05-16T03:16:43.196Z,15.47
2018-05-16T03:19:13.407Z,15.10
2018-05-16T03:21:44.685Z,14.60
2018-05-16T03:24:14.845Z,15.43
2018-05-16T03:26:45.192Z,15.77
2018-05-16T03:29:15.464Z,16.20
2018-05-16T03:31:45.848Z,18.63
2018-05-16T03:34:16.024Z,18.80
2018-05-16T03:36:46.177Z,19.40
2018-05-16T03:39:16.576Z,19.80
2018-05-16T03:41:47.145Z,18.07
2018-05-16T03:44:17.537Z,19.33
2018-05-16T03:46:47.615Z,20.47
2018-05-16T03:49:17.795Z,22.83
2018-05-16T03:51:47.888Z,20.97
2018-05-16T03:54:18.980Z,21.57
2018-05-16T03:56:49.091Z,20.53
2018-05-16T03:59:36.653Z,22.23
2018-05-16T04:02:23.368Z,21.60
2018-05-16T04:04:53.660Z,20.93
2018-05-16T04:07:24.812Z,21.57
2018-05-16T04:09:54.961Z,21.90
2018-05-16T04:12:25.377Z,21.63
2018-05-16T04:14:55.487Z,20.90
2018-05-16T04:17:26.142Z,20.63
2018-05-16T04:19:57.384Z,20.00
2018-05-16T04:22:28.375Z,22.63
2018-05-16T04:24:58.982Z,19.90
2018-05-16T04:27:29.098Z,21.07
2018-05-16T04:29:59.231Z,21.80
2018-05-16T04:32:29.664Z,24.83
2018-05-16T04:35:00.731Z,23.00
2018-05-16T04:37:30.865Z,24.70
2018-05-16T04:40:00.989Z,24.93
2018-05-16T04:42:31.628Z,22.00
2018-05-16T04:45:01.771Z,20.10
2018-05-16T04:47:32.074Z,21.30
2018-05-16T04:50:02.182Z,20.83
2018-05-16T04:52:32.389Z,20.33
2018-05-16T04:55:02.690Z,18.93
2018-05-16T04:57:32.812Z,18.50
2018-05-16T05:00:02.960Z,19.83
2018-05-16T05:02:33.135Z,18.77
2018-05-16T05:05:03.492Z,19.77
2018-05-16T05:07:33.852Z,12.00
2018-05-16T05:10:04.433Z,10.10
2018-05-16T05:12:34.602Z,9.37
2018-05-16T05:15:04.819Z,8.23
2018-05-16T05:17:35.003Z,6.67
2018-05-16T05:20:05.036Z,6.47
2018-05-16T05:22:35.198Z,5.63
2018-05-16T05:25:05.235Z,6.47
2018-05-16T05:27:35.523Z,5.90
2018-05-16T05:30:05.293Z,6.10
2018-05-16T05:32:35.673Z,6.27
2018-05-16T05:35:05.839Z,6.87
2018-05-16T05:37:36.027Z,6.13
2018-05-16T05:40:06.191Z,5.87
2018-05-16T05:42:36.618Z,6.10
2018-05-16T05:45:06.706Z,5.70
2018-05-16T05:47:37.019Z,5.73
2018-05-16T05:50:07.111Z,7.20
2018-05-16T05:52:37.972Z,7.77
2018-05-16T05:55:08.073Z,8.33
2018-05-16T05:57:38.404Z,7.60
2018-05-16T06:00:08.990Z,9.03
2018-05-16T06:02:39.215Z,8.67
2018-05-16T06:05:09.598Z,8.70
2018-05-16T06:07:39.702Z,9.23
2018-05-16T06:10:10.887Z,8.53
2018-05-16T06:12:41.275Z,7.20
2018-05-16T06:15:11.658Z,6.70
2018-05-16T06:17:41.741Z,8.00
2018-05-16T06:20:12.068Z,7.27
2018-05-16T06:22:42.192Z,7.53
2018-05-16T06:25:12.833Z,7.27
2018-05-16T06:27:43.781Z,8.13
2018-05-16T06:30:14.074Z,9.50
2018-05-16T06:32:45.227Z,9.97
2018-05-16T06:35:15.878Z,10.23
2018-05-16T06:37:46.197Z,8.73
2018-05-16T06:40:16.337Z,11.43
2018-05-16T06:42:46.528Z,11.60
2018-05-16T06:45:17.633Z,9.80
2018-05-16T06:47:47.451Z,10.27
2018-05-16T06:50:17.632Z,9.47
2018-05-16T06:52:47.704Z,11.87
2018-05-16T06:55:18.594Z,9.30
2018-05-16T06:57:48.886Z,9.90
2018-05-16T07:00:19.189Z,10.40
2018-05-16T07:02:50.268Z,8.83
2018-05-16T07:05:21.657Z,9.37
2018-05-16T07:07:51.762Z,9.13
2018-05-16T07:10:22.670Z,8.13
2018-05-16T07:12:52.776Z,7.13
2018-05-16T07:15:22.956Z,7.77
2018-05-16T07:17:53.076Z,7.87
2018-05-16T07:20:23.695Z,7.57
2018-05-16T07:22:54.041Z,7.97
2018-05-16T07:25:24.351Z,8.63
2018-05-16T07:27:54.505Z,7.77
2018-05-16T07:30:24.788Z,8.43
2018-05-16T07:32:54.897Z,8.77
2018-05-16T07:35:25.078Z,8.50
2018-05-16T07:37:55.605Z,8.03
2018-05-16T07:40:25.713Z,9.40
2018-05-16T07:42:55.426Z,10.17
2018-05-16T07:45:26.440Z,10.37
2018-05-16T07:47:56.917Z,10.07
2018-05-16T07:50:28.124Z,10.07
2018-05-16T07:52:58.291Z,10.53
2018-05-16T07:55:28.618Z,10.97
2018-05-16T07:57:59.544Z,10.67
2018-05-16T08:00:29.722Z,11.80
2018-05-16T08:03:00.813Z,11.77
2018-05-16T08:05:31.191Z,10.90
2018-05-16T08:08:01.379Z,11.90
2018-05-16T08:10:32.293Z,11.67
2018-05-16T08:13:02.413Z,12.70
2018-05-16T08:15:33.965Z,13.90
2018-05-16T08:18:04.119Z,14.80
2018-05-16T08:20:34.212Z,16.80
2018-05-16T08:23:04.521Z,14.87
2018-05-16T08:25:35.133Z,13.77
2018-05-16T08:28:05.235Z,12.87
2018-05-16T08:30:35.379Z,11.67
2018-05-16T08:33:05.523Z,12.67
2018-05-16T08:35:35.848Z,10.63
2018-05-16T08:38:06.787Z,9.97
2018-05-16T08:40:36.885Z,11.63
2018-05-16T08:43:07.005Z,10.80
2018-05-16T08:45:37.043Z,12.57
2018-05-16T08:48:07.147Z,11.17
2018-05-16T08:50:37.256Z,11.30
2018-05-16T08:53:08.444Z,10.10
2018-05-16T08:55:38.890Z,11.97
2018-05-16T08:58:09.200Z,11.47
2018-05-16T09:00:40.314Z,9.57
2018-05-16T09:03:10.542Z,8.67
2018-05-16T09:05:40.661Z,9.97
2018-05-16T09:08:10.976Z,10.33
2018-05-16T09:10:41.135Z,9.90
2018-05-16T09:13:11.132Z,10.23
2018-05-16T09:15:41.280Z,9.00
2018-05-16T09:18:12.133Z,9.30
2018-05-16T09:20:42.258Z,8.13
2018-05-16T09:23:12.545Z,9.47
2018-05-16T09:25:42.715Z,8.23
2018-05-16T09:28:12.823Z,8.27
2018-05-16T09:30:43.204Z,8.77
2018-05-16T09:33:13.337Z,7.43
2018-05-16T09:35:43.634Z,7.33
2018-05-16T09:38:14.159Z,6.67
2018-05-16T09:40:44.622Z,6.03
2018-05-16T09:43:14.725Z,4.97
2018-05-16T09:45:45.075Z,5.13
2018-05-16T09:48:15.299Z,5.20
2018-05-16T09:50:45.446Z,4.50
2018-05-16T09:53:15.541Z,4.00
2018-05-16T09:55:45.668Z,4.07
2018-05-16T09:58:16.838Z,3.77
2018-05-16T10:00:46.972Z,4.93
2018-05-16T10:03:17.118Z,6.30
2018-05-16T10:05:47.238Z,7.20
2018-05-16T10:08:17.493Z,7.67
2018-05-16T10:10:47.647Z,8.37
2018-05-16T10:13:17.837Z,9.57
2018-05-16T10:15:48.113Z,9.87
2018-05-16T10:18:18.512Z,10.40
2018-05-16T10:20:48.826Z,11.80
2018-05-16T10:23:19.256Z,13.63
2018-05-16T10:25:49.368Z,16.10
2018-05-16T10:28:19.508Z,19.83
2018-05-16T10:30:49.652Z,19.10
2018-05-16T10:33:19.783Z,20.33
2018-05-16T10:35:49.979Z,20.00
2018-05-16T10:38:20.311Z,13.73
2018-05-16T10:40:50.502Z,14.87
2018-05-16T10:43:20.871Z,13.37
2018-05-16T10:45:51.982Z,15.20
2018-05-16T10:48:22.405Z,15.57
2018-05-16T10:50:52.584Z,12.53
2018-05-16T10:53:22.997Z,10.97
2018-05-16T10:55:53.122Z,11.73
2018-05-16T10:58:23.234Z,12.60
2018-05-16T11:00:53.029Z,12.67
2018-05-16T11:03:23.521Z,10.77
2018-05-16T11:05:53.763Z,11.33
2018-05-16T11:08:23.871Z,10.50
2018-05-16T11:10:53.996Z,11.60
2018-05-16T11:13:24.960Z,10.30
2018-05-16T11:15:55.287Z,10.43
2018-05-16T11:18:25.911Z,13.33
2018-05-16T11:20:56.037Z,12.53
2018-05-16T11:23:26.164Z,12.10
2018-05-16T11:25:56.269Z,11.27
2018-05-16T11:28:26.672Z,10.70
2018-05-16T11:30:57.078Z,8.60
2018-05-16T11:33:27.204Z,8.60
2018-05-16T11:35:57.357Z,8.33
2018-05-16T11:38:27.457Z,8.90
2018-05-16T11:40:57.548Z,8.87
2018-05-16T11:43:27.863Z,8.00
2018-05-16T11:45:58.853Z,9.50
2018-05-16T11:48:29.176Z,10.23
2018-05-16T11:51:00.254Z,7.03
2018-05-16T11:53:31.300Z,6.80
2018-05-16T11:56:01.721Z,5.53
2018-05-16T11:58:31.960Z,5.00
2018-05-16T12:01:02.098Z,5.97
2018-05-16T12:03:32.073Z,5.43
2018-05-16T12:06:02.433Z,4.43
2018-05-16T12:08:32.582Z,4.50
2018-05-16T12:11:03.295Z,3.80
2018-05-16T12:13:34.140Z,2.85
2018-05-16T12:16:05.030Z,3.55
2018-05-16T12:18:35.696Z,3.50
2018-05-16T12:21:06.372Z,4.20
2018-05-16T12:23:36.576Z,4.37
2018-05-16T12:26:06.669Z,5.23
2018-05-16T12:28:36.980Z,4.97
2018-05-16T12:31:07.879Z,3.80
2018-05-16T12:33:38.159Z,4.50
2018-05-16T12:36:07.995Z,5.10
2018-05-16T12:38:39.837Z,5.27
2018-05-16T12:41:10.128Z,4.90
2018-05-16T12:43:40.223Z,4.77
2018-05-16T12:46:10.311Z,5.87
2018-05-16T12:48:40.606Z,5.47
2018-05-16T12:51:10.876Z,6.53
2018-05-16T12:53:41.042Z,6.40
2018-05-16T12:56:11.122Z,6.03
2018-05-16T12:58:41.062Z,5.87
2018-05-16T13:01:12.199Z,7.27
2018-05-16T13:03:42.304Z,7.37
2018-05-16T13:06:12.433Z,6.73
2018-05-16T13:08:42.835Z,7.30
2018-05-16T13:11:12.932Z,7.37
2018-05-16T13:13:43.151Z,7.77
2018-05-16T13:16:13.323Z,6.90
2018-05-16T13:18:43.433Z,2.23
2018-05-16T13:21:13.611Z,2.60
2018-05-16T13:23:43.798Z,2.53
2018-05-16T13:26:13.998Z,2.60
2018-05-16T13:28:44.244Z,2.97
2018-05-16T13:31:15.514Z,4.40
2018-05-16T13:33:45.982Z,3.87
2018-05-16T13:36:16.916Z,2.50
2018-05-16T13:38:47.254Z,3.10
2018-05-16T13:41:17.338Z,3.27
2018-05-16T13:43:47.500Z,4.10
2018-05-16T13:46:17.926Z,4.10
2018-05-16T13:48:49.002Z,3.10
2018-05-16T13:51:19.101Z,3.63
2018-05-16T13:53:49.425Z,3.40
2018-05-16T13:56:19.614Z,4.17
2018-05-16T13:58:49.734Z,3.63
2018-05-16T14:01:20.140Z,3.67
2018-05-16T14:03:50.981Z,3.90
2018-05-16T14:06:21.965Z,3.73
2018-05-16T14:08:52.265Z,3.90
2018-05-16T14:11:22.353Z,3.60
2018-05-16T14:13:53.481Z,4.13
2018-05-16T14:16:23.577Z,3.40
2018-05-16T14:18:54.339Z,3.30
2018-05-16T14:21:24.447Z,3.50
2018-05-16T14:23:55.419Z,3.30
2018-05-16T14:26:25.651Z,3.90
2018-05-16T14:28:55.988Z,3.50
2018-05-16T14:31:26.096Z,3.17
2018-05-16T14:33:57.489Z,3.83
2018-05-16T14:36:29.183Z,3.77
2018-05-16T14:38:58.961Z,2.97
2018-05-16T14:41:29.852Z,2.80
2018-05-16T14:44:00.917Z,3.80
2018-05-16T14:46:31.786Z,3.90
2018-05-16T14:49:02.814Z,4.00
2018-05-16T14:51:33.700Z,4.00
2018-05-16T14:54:04.752Z,4.30
2018-05-16T14:56:35.601Z,4.53
2018-05-16T14:59:06.114Z,4.87
2018-05-16T15:01:36.244Z,4.07
2018-05-16T15:04:06.542Z,3.63
2018-05-16T15:06:37.941Z,3.58
2018-05-16T15:09:08.649Z,3.58
2018-05-16T15:11:39.974Z,3.63
2018-05-16T15:14:10.839Z,4.20
2018-05-16T15:16:40.968Z,4.37
2018-05-16T15:19:11.099Z,4.43
2018-05-16T15:21:42.245Z,4.60
2018-05-16T15:24:12.590Z,4.93
2018-05-16T15:26:43.523Z,4.70
2018-05-16T15:29:14.398Z,5.70
2018-05-16T15:31:45.292Z,5.53
2018-05-16T15:34:15.435Z,5.67
2018-05-16T15:36:45.624Z,6.10
2018-05-16T15:39:15.767Z,5.87
2018-05-16T15:41:46.187Z,6.40
2018-05-16T15:44:17.358Z,6.10
2018-05-16T15:46:47.492Z,6.23
2018-05-16T15:49:17.859Z,6.47
2018-05-16T15:51:48.202Z,7.47
2018-05-16T15:54:18.337Z,3.77
2018-05-16T15:56:48.672Z,2.60
2018-05-16T15:59:18.302Z,2.90
2018-05-16T16:01:48.590Z,3.20
2018-05-16T16:04:18.868Z,2.90
2018-05-16T16:06:49.115Z,2.73
2018-05-16T16:09:19.493Z,2.60
2018-05-16T16:11:50.446Z,2.27
2018-05-16T16:14:20.821Z,2.80
2018-05-16T16:16:50.980Z,2.80
2018-05-16T16:19:21.451Z,2.50
2018-05-16T16:21:51.572Z,2.20
2018-05-16T16:24:21.990Z,2.17
2018-05-16T16:26:52.579Z,2.03
2018-05-16T16:29:22.717Z,2.33
2018-05-16T16:31:52.961Z,2.00
2018-05-16T16:34:23.113Z,1.70
2018-05-16T16:36:53.460Z,1.90
2018-05-16T16:39:24.318Z,1.80
2018-05-16T16:41:54.492Z,1.50
2018-05-16T16:44:24.293Z,1.77
2018-05-16T16:46:54.074Z,1.73
2018-05-16T16:49:24.184Z,1.60
2018-05-16T16:51:54.556Z,1.52
2018-05-16T16:54:25.288Z,1.40
2018-05-16T16:56:56.073Z,1.20
2018-05-16T16:59:26.711Z,1.40
2018-05-16T17:01:57.366Z,1.55
2018-05-16T17:04:28.509Z,1.42
2018-05-16T17:06:59.291Z,1.52
2018-05-16T17:09:30.222Z,2.10
2018-05-16T17:12:00.994Z,1.55
2018-05-16T17:14:31.690Z,1.67
2018-05-16T17:17:02.047Z,1.80
2018-05-16T17:19:32.388Z,2.00
2018-05-16T17:22:03.454Z,1.63
2018-05-16T17:24:33.555Z,1.37
2018-05-16T17:27:03.952Z,1.53
2018-05-16T17:29:34.275Z,1.70
2018-05-16T17:32:04.572Z,1.70
2018-05-16T17:34:34.698Z,1.60
2018-05-16T17:37:04.502Z,1.60
2018-05-16T17:39:34.605Z,1.73
2018-05-16T17:42:04.427Z,2.03
2018-05-16T17:44:34.856Z,1.87
2018-05-16T17:47:05.758Z,1.93
2018-05-16T17:49:35.888Z,2.20
2018-05-16T17:52:06.042Z,2.50
2018-05-16T17:54:36.151Z,2.77
2018-05-16T17:57:06.313Z,3.00
2018-05-16T17:59:36.489Z,2.90
2018-05-16T18:02:06.607Z,3.40
2018-05-16T18:04:36.829Z,3.07
2018-05-16T18:07:07.811Z,3.70
2018-05-16T18:09:38.740Z,3.43
2018-05-16T18:12:08.918Z,3.63
2018-05-16T18:21:16.511Z,3.50
2018-05-16T18:27:13.903Z,2.97
2018-05-16T18:33:10.067Z,2.87
2018-05-16T18:35:58.913Z,2.90
2018-05-16T18:38:29.049Z,2.40
2018-05-16T18:41:16.270Z,2.60
2018-05-16T18:44:05.287Z,2.33
2018-05-16T18:46:51.757Z,2.77
2018-05-16T18:52:50.854Z,2.30
2018-05-16T18:58:35.168Z,3.00
2018-05-16T19:01:05.541Z,3.03
2018-05-16T19:03:51.784Z,3.40
2018-05-16T19:06:40.703Z,3.70
2018-05-16T19:09:10.841Z,3.63
2018-05-16T19:14:51.458Z,5.20
2018-05-16T19:17:21.589Z,5.77
2018-05-16T19:19:52.099Z,5.50
2018-05-16T19:25:33.017Z,6.03
2018-05-16T19:31:32.197Z,8.17
2018-05-16T19:37:32.489Z,9.20
2018-05-16T19:40:18.784Z,10.33
2018-05-16T19:46:10.856Z,11.73
2018-05-16T19:52:15.781Z,12.47
2018-05-16T19:54:46.215Z,13.77
2018-05-16T20:03:50.533Z,14.23
2018-05-16T20:09:30.865Z,14.97
2018-05-16T20:21:51.761Z,11.00
2018-05-16T20:24:40.232Z,11.33
2018-05-16T20:30:16.447Z,10.87
2018-05-16T20:32:46.676Z,11.80
2018-05-16T20:38:41.826Z,10.77
2018-05-16T20:41:51.333Z,11.90
2018-05-16T20:44:21.740Z,12.50
2018-05-16T20:50:02.043Z,13.30
2018-05-16T20:52:32.285Z,13.47
2018-05-16T20:55:18.211Z,13.13
2018-05-16T21:04:25.121Z,15.57
2018-05-16T21:07:11.670Z,14.70
2018-05-16T21:12:52.120Z,16.37
2018-05-16T21:15:22.298Z,15.37
2018-05-16T21:17:52.787Z,14.43
2018-05-16T21:26:56.847Z,17.57
2018-05-16T21:32:57.422Z,18.17
2018-05-16T21:41:47.452Z,20.03
2018-05-16T21:44:35.722Z,19.03
2018-05-16T21:56:56.566Z,22.17
2018-05-16T21:59:27.101Z,19.10
2018-05-16T22:08:32.109Z,27.20
2018-05-16T22:17:22.654Z,25.37
2018-05-16T22:54:18.136Z,26.00
2018-05-16T22:57:08.214Z,27.10
2018-05-16T22:59:53.678Z,25.27
2018-05-16T23:02:24.899Z,27.70
2018-05-16T23:04:56.571Z,27.77
2018-05-16T23:16:57.329Z,22.17
2018-05-16T23:26:04.919Z,18.17
2018-05-16T23:28:51.436Z,19.47
2018-05-16T23:34:32.967Z,19.60
2018-05-16T23:40:08.931Z,20.43
2018-05-16T23:55:27.039Z,20.50
